AirNav   TITAN Aviation Fuels
 
 1410 users online  

3AU Augusta Municipal Airport
Augusta, Kansas, USA

GOING TO AUGUSTA?


FAA INFORMATION EFFECTIVE 01 DECEMBER 2022

Location

FAA Identifier: 3AU
Lat/Long: 37-40-17.9000N 097-04-40.3000W
37-40.298333N 097-04.671667W
37.6716389,-97.0778611
(estimated)
Elevation: 1328 ft. / 404.8 m (surveyed)
Variation: 04E (2010)
From city: 5 miles W of AUGUSTA, KS
Time zone: UTC -6 (UTC -5 during Daylight Saving Time)
Zip code: 67010

Airport Operations

Airport use: Open to the public
Control tower: no
ARTCC: KANSAS CITY CENTER
FSS: WICHITA FLIGHT SERVICE STATION
NOTAMs facility: ICT (NOTAM-D service available)
Attendance: MON-FRI 0800-1700
Wind indicator: yes
Segmented circle: yes
Lights: ACTVT HIRL RY 18/36; REIL RYS 18 & 36; VASI RY 36; PAPI RY 18 - CTAF.
Beacon: white-green (lighted land airport)
Operates sunset to sunrise.

Airport Communications

CTAF/UNICOM: 122.8
WX AWOS-3P: 124.175 (316-733-6696)
WICHITA APPROACH: 134.8
WICHITA DEPARTURE: 134.8
CLEARANCE DELIVERY: 125.0
WX AWOS-2 at 1K1 (6 nm N): 118.3 (316-530-6004)
WX AWOS-3PT at BEC (7 nm W): 119.45 (316-515-7116)
WX ASOS at AAO (8 nm NW): 134.025 (316-636-2541)
WX AWOS-3P at EQA (14 nm NE): 120.875 (316-322-8095)
WX ASOS at ICT (17 nm W): PHONE 316-945-8022

Nearby radio navigation aids

VOR radial/distance  VOR name  Freq  Var
ICTr093/24.4WICHITA VORTAC113.8007E

Airport Services

Fuel available: 100LL JET-A+ MOGAS
100LL:SELF SVC AND FULL SVC 100LL, MOGAS, JET A+ FULL SVC.
Parking: hangars and tiedowns
Airframe service: MAJOR
Powerplant service: MAJOR
Bottled oxygen: LOW
Bulk oxygen: NONE

Runway Information

Runway 18/36

Dimensions: 4201 x 60 ft. / 1280 x 18 m
Surface: asphalt, in good condition
Weight bearing capacity: 
PCN 5 /F/C/Y/U
Single wheel: 12.0
Runway edge lights: high intensity
RUNWAY 18  RUNWAY 36
Latitude: 37-40.642790N37-39.952533N
Longitude: 097-04.639873W097-04.703435W
Elevation: 1328.0 ft.1306.4 ft.
Traffic pattern: leftright
Runway heading: 180 magnetic, 184 true000 magnetic, 004 true
Markings: nonprecision, in fair conditionnonprecision, in fair condition
Visual slope indicator: 4-light PAPI on left2-box VASI on left (3.00 degrees glide path)
Runway end identifier lights: yesyes
Touchdown point: yes, no lightsyes, no lights
Obstructions: 35 ft. tree, 980 ft. from runway, 165 ft. right of centerline, 22:1 slope to clearnone

Airport Ownership and Management from official FAA records

Ownership: Publicly-owned
Owner: CITY OF AUGUSTA
113 EAST 6TH AVE., BOX 489
AUGUSTA, KS 67010
Phone 316-775-4510
Manager: RAY SEIF
4800 W. BEECH DR, STE 1, PO BOX 489, PO BOX 489
AUGUSTA, KS 67010
Phone 316-733-1327

Airport Operational Statistics

Aircraft based on the field: 84
Single engine airplanes: 71
Multi engine airplanes: 12
Jet airplanes: 1
    
Aircraft operations: avg 99/day *
58% local general aviation
42% transient general aviation
* for 12-month period ending 08 July 2021

Additional Remarks

FOR SVC AFT HRS CALL (316)-733-1326.
PAEW MOWING SUMMER MONTHS.
RY ENDS LINE OF SITE OBSTRUCTED BY TERRAIN
CALM WIND RUNWAY IS RUNWAY 18
AIRPORT LINE OFFICE PHONE 316-733 1326
FOR CD CTC WICHITA APCH AT 316-350-1520.
5FT DITCH 330 FT N OF APCH END OF RWY 18.

Instrument Procedures

NOTE: All procedures below are presented as PDF files. If you need a reader for these files, you should download the free Adobe Reader.

NOT FOR NAVIGATION. Please procure official charts for flight.
FAA instrument procedures published for use from 01 December 2022 at 0901Z to 29 December 2022 at 0900z.

 
IAPs - Instrument Approach Procedures
RNAV (GPS) RWY 36   download (218KB)
VOR/DME-A   download (173KB)
NOTE: Special Alternate Minimums apply   download (39KB)
NOTE: Special Take-Off Minimums/Departure Procedures apply   download (147KB)

Other nearby airports with instrument procedures:

1K1 - Lloyd Stearman Field Airport (6 nm N)
KBEC - Beech Factory Airport (7 nm W)
KAAO - Colonel James Jabara Airport (8 nm NW)
KCEA - Cessna Aircraft Field Airport (8 nm W)
KIAB - Mc Connell Air Force Base (9 nm W)
KEQA - El Dorado/Capt Jack Thomas Memorial Airport (14 nm NE)
KICT - Wichita Dwight D Eisenhower National Airport (17 nm W)
 
Loc | Ops | Rwys | IFR | FBO | Links
Com | Nav | Svcs | Stats | Notes
Area around 3AU (Augusta Municipal Airport)
 
Road maps at: MapQuest Bing Google
 
Aerial photo
WARNING: Photo may not be current or correct
Aerial photo of 3AU (Augusta Municipal Airport)
Photo taken 27-Aug-2009

Do you have a better or more recent aerial photo of Augusta Municipal Airport that you would like to share? If so, please send us your photo.

 
Sectional chart

 
Airport distance calculator
Flying to Augusta Municipal Airport? Find the distance to fly.

From to 3AU

Sunrise and sunset
Times for 08-Dec-2022
 Local
(UTC-6)
 Zulu
(UTC)
Morning civil twilight07:0313:03
Sunrise07:3213:32
Sunset17:0923:09
Evening civil twilight17:3823:38

Current date and time
Zulu (UTC)  08-Dec-2022 22:07:05
Local (UTC-6)  08-Dec-2022 16:07:05
 
METAR
K3AU 082155Z AUTO 24006KT 2 1/2SM BR BKN003 OVC008 10/09 A3006 RMK AO2
K1K1 
6nm N 
082155Z AUTO 24006KT 1 3/4SM -DZ OVC003 10/09 A3005 RMK AO2 T00970092
KBEC 
7nm W 
082155Z AUTO 24009KT 4SM BR OVC005 10/10 A3006 RMK AO2 T01000100
KAAO 
8nm NW 
082154Z AUTO 24009KT 6SM BR BKN006 OVC012 10/09 A3005 RMK AO2 CIG 003V010 SLP181 T01000089
KIAB 
10nm W 
082130Z AUTO 25009KT 6SM BR OVC005 11/10 A3002 RMK AO2 CIG 003V005 CIG 004 RWY01 SLP172
KEQA 
14nm NE 
082155Z AUTO 23007KT 1/2SM -DZ OVC003 12/11 A3004 RMK AO2
KICT 
17nm W 
082153Z 25007KT 6SM BR OVC012 11/09 A3005 RMK AO2 SLP179 T01060094
TAF
KIAB 
10nm W 
081800Z 0818/0924 17007KT 4800 BR OVC003 QNH3002INS BECMG 0900/0901 30006KT 9999 NSW BKN012 QNH3005INS BECMG 0903/0904 32008KT 9999 SKC QNH3009INS BECMG 0920/0921 12005KT 9999 FEW090 BKN200 QNH3007INS TX11/0821Z TN00/0912Z
KICT 
17nm W 
081942Z 0820/0918 16006KT 3SM BR OVC003 TEMPO 0820/0822 1SM BR FM090000 VRB05KT P6SM BKN014 FM090100 30007KT P6SM BKN030 FM090300 31007KT P6SM SCT030
NOTAMs
Click for the latest NOTAMs
NOTAMs are issued by the DoD/FAA and will open in a separate window not controlled by AirNav.

 

 
 

FBO, Fuel Providers, and Aircraft Ground Support

  
 Business Name 
 
 Contact 
 
 Services / Description 
 
Fuel Prices
 
Comments
  
 Augusta Municipal Airport
UNICOM 122.80
316-733-1326
[web site]
[email]
Augusta Municipal Airport offers ALL the amenities that larger FBO's and Airports do, but without the hassle of the big city delays, access issues and headaches! Augusta Municipal Airport is close to downtown Wichita, with established crew rates for hotels, on-demand catering and a crew car. Augusta offers quick turn around for aircraft seeking to gas and go! Come check us out - you'll be glad you did! www.flyaugustaks.com

More info about Augusta Municipal Airport
Phillips 66
100LL Jet A
FS --- $5.65 
SS $5.08 --- 
 Updated 02-Dec-2022
 
   1 read write
Augusta Municipal Airport (full-serve Mogas) 316-733-1326
316-733-1327
[web site]
[email]
Aviation fuel

More info about Augusta Municipal Airport (full-serve Mogas)
independent
Mogas
FS $4.61 
 Updated 02-Dec-2022
 
   write
FS=Full service
SS=Self service
Update Fuel Prices
 

Would you like to see your business listed on this page?

 If your business provides an interesting product or service to pilots, flight crews, aircraft, or users of the Augusta Municipal Airport, you should consider listing it here.  To start the listing process, click on the button below
 
Add a business
 

Other Pages about Augusta Municipal Airport

www.flyaugustaks.com
 
Update a link
 
Copyright © AirNav, LLC. All rights reserved. Privacy Policy  Contact